sensor_id;sensor_type;location;lat;lon;timestamp;temperature;humidity
7030;DHT22;3556;53.500;10.176;2023-03-04T00:02:23;5.50;99.90
7030;DHT22;3556;53.500;10.176;2023-03-04T00:04:49;5.60;99.90
7030;DHT22;3556;53.500;10.176;2023-03-04T00:07:14;5.60;99.90
7030;DHT22;3556;53.500;10.176;2023-03-04T00:09:44;5.60;99.90
7030;DHT22;3556;53.500;10.176;2023-03-04T00:12:10;5.60;99.90
7030;DHT22;3556;53.500;10.176;2023-03-04T00:14:36;5.60;99.90
7030;DHT22;3556;53.500;10.176;2023-03-04T00:17:02;5.70;99.90
7030;DHT22;3556;53.500;10.176;2023-03-04T00:19:29;5.70;99.90
7030;DHT22;3556;53.500;10.176;2023-03-04T00:21:55;5.70;99.90
7030;DHT22;3556;53.500;10.176;2023-03-04T00:24:20;5.70;99.90
7030;DHT22;3556;53.500;10.176;2023-03-04T00:26:46;5.70;99.90
7030;DHT22;3556;53.500;10.176;2023-03-04T00:29:12;5.70;99.90
7030;DHT22;3556;53.500;10.176;2023-03-04T00:31:37;5.70;99.90
7030;DHT22;3556;53.500;10.176;2023-03-04T00:34:03;5.70;99.90
7030;DHT22;3556;53.500;10.176;2023-03-04T00:36:28;5.70;99.90
7030;DHT22;3556;53.500;10.176;2023-03-04T00:38:54;5.80;99.90
7030;DHT22;3556;53.500;10.176;2023-03-04T00:41:20;5.80;99.90
7030;DHT22;3556;53.500;10.176;2023-03-04T00:43:45;5.80;99.90
7030;DHT22;3556;53.500;10.176;2023-03-04T00:46:11;5.80;99.90
7030;DHT22;3556;53.500;10.176;2023-03-04T00:48:36;5.80;99.90
7030;DHT22;3556;53.500;10.176;2023-03-04T00:51:03;5.80;99.90
7030;DHT22;3556;53.500;10.176;2023-03-04T00:53:29;5.80;99.90
7030;DHT22;3556;53.500;10.176;2023-03-04T00:55:54;5.80;99.90
7030;DHT22;3556;53.500;10.176;2023-03-04T00:58:20;5.80;99.90
7030;DHT22;3556;53.500;10.176;2023-03-04T01:00:46;5.80;99.90
7030;DHT22;3556;53.500;10.176;2023-03-04T01:03:11;5.80;99.90
7030;DHT22;3556;53.500;10.176;2023-03-04T01:05:37;5.80;99.90
7030;DHT22;3556;53.500;10.176;2023-03-04T01:08:03;5.80;99.90
7030;DHT22;3556;53.500;10.176;2023-03-04T01:10:29;5.80;99.90
7030;DHT22;3556;53.500;10.176;2023-03-04T01:12:55;5.80;99.90
7030;DHT22;3556;53.500;10.176;2023-03-04T01:15:21;5.90;99.90
7030;DHT22;3556;53.500;10.176;2023-03-04T01:17:47;5.90;99.90
7030;DHT22;3556;53.500;10.176;2023-03-04T01:20:12;5.90;99.90
7030;DHT22;3556;53.500;10.176;2023-03-04T01:22:38;5.90;99.90
7030;DHT22;3556;53.500;10.176;2023-03-04T01:25:05;5.80;99.90
7030;DHT22;3556;53.500;10.176;2023-03-04T01:27:30;5.90;99.90
7030;DHT22;3556;53.500;10.176;2023-03-04T01:29:56;5.90;99.90
7030;DHT22;3556;53.500;10.176;2023-03-04T01:32:21;5.90;99.90
7030;DHT22;3556;53.500;10.176;2023-03-04T01:34:47;5.90;99.90
7030;DHT22;3556;53.500;10.176;2023-03-04T01:37:13;5.90;99.90
7030;DHT22;3556;53.500;10.176;2023-03-04T01:39:39;5.90;99.90
7030;DHT22;3556;53.500;10.176;2023-03-04T01:42:04;5.80;99.90
7030;DHT22;3556;53.500;10.176;2023-03-04T01:44:31;5.90;99.90
7030;DHT22;3556;53.500;10.176;2023-03-04T01:46:56;5.90;99.90
7030;DHT22;3556;53.500;10.176;2023-03-04T01:49:22;5.90;99.90
7030;DHT22;3556;53.500;10.176;2023-03-04T01:51:51;5.90;99.90
7030;DHT22;3556;53.500;10.176;2023-03-04T01:54:18;5.90;99.90
7030;DHT22;3556;53.500;10.176;2023-03-04T01:56:46;5.90;99.90
7030;DHT22;3556;53.500;10.176;2023-03-04T02:01:50;5.90;99.90
7030;DHT22;3556;53.500;10.176;2023-03-04T02:04:18;5.90;99.90
7030;DHT22;3556;53.500;10.176;2023-03-04T02:06:45;5.90;99.90
7030;DHT22;3556;53.500;10.176;2023-03-04T02:09:12;5.90;99.90
7030;DHT22;3556;53.500;10.176;2023-03-04T02:11:38;5.90;99.90
7030;DHT22;3556;53.500;10.176;2023-03-04T02:14:05;5.90;99.90
7030;DHT22;3556;53.500;10.176;2023-03-04T02:16:31;5.90;99.90
7030;DHT22;3556;53.500;10.176;2023-03-04T02:18:57;6.00;99.90
7030;DHT22;3556;53.500;10.176;2023-03-04T02:21:28;6.00;99.90
7030;DHT22;3556;53.500;10.176;2023-03-04T02:26:40;5.90;99.90
7030;DHT22;3556;53.500;10.176;2023-03-04T02:29:09;5.90;99.90
7030;DHT22;3556;53.500;10.176;2023-03-04T02:31:39;5.90;99.90
7030;DHT22;3556;53.500;10.176;2023-03-04T02:34:09;5.90;99.90
7030;DHT22;3556;53.500;10.176;2023-03-04T02:36:35;5.90;99.90
7030;DHT22;3556;53.500;10.176;2023-03-04T02:39:09;5.90;99.90
7030;DHT22;3556;53.500;10.176;2023-03-04T02:41:35;5.90;99.90
7030;DHT22;3556;53.500;10.176;2023-03-04T02:44:01;6.00;99.90
7030;DHT22;3556;53.500;10.176;2023-03-04T02:46:27;5.90;99.90
7030;DHT22;3556;53.500;10.176;2023-03-04T02:48:52;6.00;99.90
7030;DHT22;3556;53.500;10.176;2023-03-04T02:51:18;5.90;99.90
7030;DHT22;3556;53.500;10.176;2023-03-04T02:53:44;5.90;99.90
7030;DHT22;3556;53.500;10.176;2023-03-04T02:56:09;5.90;99.90
7030;DHT22;3556;53.500;10.176;2023-03-04T02:58:35;5.90;99.90
7030;DHT22;3556;53.500;10.176;2023-03-04T03:01:04;6.00;99.90
7030;DHT22;3556;53.500;10.176;2023-03-04T03:03:30;5.90;99.90
7030;DHT22;3556;53.500;10.176;2023-03-04T03:05:55;6.00;99.90
7030;DHT22;3556;53.500;10.176;2023-03-04T03:08:21;5.90;99.90
7030;DHT22;3556;53.500;10.176;2023-03-04T03:10:46;5.90;99.90
7030;DHT22;3556;53.500;10.176;2023-03-04T03:13:12;5.90;99.90
7030;DHT22;3556;53.500;10.176;2023-03-04T03:15:38;5.90;99.90
7030;DHT22;3556;53.500;10.176;2023-03-04T03:18:10;6.00;99.90
7030;DHT22;3556;53.500;10.176;2023-03-04T03:20:36;5.90;99.90
7030;DHT22;3556;53.500;10.176;2023-03-04T03:23:02;6.00;99.90
7030;DHT22;3556;53.500;10.176;2023-03-04T03:25:28;6.00;99.90
7030;DHT22;3556;53.500;10.176;2023-03-04T03:27:54;6.00;99.90
7030;DHT22;3556;53.500;10.176;2023-03-04T03:30:19;5.90;99.90
7030;DHT22;3556;53.500;10.176;2023-03-04T03:32:45;5.90;99.90
7030;DHT22;3556;53.500;10.176;2023-03-04T03:35:11;6.00;99.90
7030;DHT22;3556;53.500;10.176;2023-03-04T03:37:37;6.00;99.90
7030;DHT22;3556;53.500;10.176;2023-03-04T03:40:03;6.00;99.90
7030;DHT22;3556;53.500;10.176;2023-03-04T03:42:29;6.00;99.90
7030;DHT22;3556;53.500;10.176;2023-03-04T03:44:55;6.00;99.90
7030;DHT22;3556;53.500;10.176;2023-03-04T03:47:21;6.00;99.90
7030;DHT22;3556;53.500;10.176;2023-03-04T03:49:46;6.10;99.90
7030;DHT22;3556;53.500;10.176;2023-03-04T03:52:12;6.00;99.90
7030;DHT22;3556;53.500;10.176;2023-03-04T03:54:38;6.00;99.90
7030;DHT22;3556;53.500;10.176;2023-03-04T03:57:04;6.00;99.90
7030;DHT22;3556;53.500;10.176;2023-03-04T03:59:29;6.00;99.90
7030;DHT22;3556;53.500;10.176;2023-03-04T04:01:55;6.00;99.90
7030;DHT22;3556;53.500;10.176;2023-03-04T04:04:20;6.00;99.90
7030;DHT22;3556;53.500;10.176;2023-03-04T04:06:46;5.90;99.90
7030;DHT22;3556;53.500;10.176;2023-03-04T04:09:12;5.90;99.90
7030;DHT22;3556;53.500;10.176;2023-03-04T04:11:37;5.90;99.90
7030;DHT22;3556;53.500;10.176;2023-03-04T04:14:03;5.80;99.90
7030;DHT22;3556;53.500;10.176;2023-03-04T04:16:29;5.90;99.90
7030;DHT22;3556;53.500;10.176;2023-03-04T04:18:55;5.80;99.90
7030;DHT22;3556;53.500;10.176;2023-03-04T04:21:20;5.80;99.90
7030;DHT22;3556;53.500;10.176;2023-03-04T04:23:46;5.80;99.90
7030;DHT22;3556;53.500;10.176;2023-03-04T04:26:11;5.90;99.90
7030;DHT22;3556;53.500;10.176;2023-03-04T04:28:37;5.80;99.90
7030;DHT22;3556;53.500;10.176;2023-03-04T04:31:06;5.90;99.90
7030;DHT22;3556;53.500;10.176;2023-03-04T04:33:32;5.90;99.90
7030;DHT22;3556;53.500;10.176;2023-03-04T04:35:58;5.90;99.90
7030;DHT22;3556;53.500;10.176;2023-03-04T04:38:25;5.90;99.90
7030;DHT22;3556;53.500;10.176;2023-03-04T04:40:51;5.90;99.90
7030;DHT22;3556;53.500;10.176;2023-03-04T04:43:17;5.90;99.90
7030;DHT22;3556;53.500;10.176;2023-03-04T04:45:42;5.90;99.90
7030;DHT22;3556;53.500;10.176;2023-03-04T04:48:08;5.90;99.90
7030;DHT22;3556;53.500;10.176;2023-03-04T04:50:33;5.90;99.90
7030;DHT22;3556;53.500;10.176;2023-03-04T04:52:59;5.90;99.90
7030;DHT22;3556;53.500;10.176;2023-03-04T04:55:25;5.90;99.90
7030;DHT22;3556;53.500;10.176;2023-03-04T04:57:51;6.00;99.90
7030;DHT22;3556;53.500;10.176;2023-03-04T05:00:17;6.00;99.90
7030;DHT22;3556;53.500;10.176;2023-03-04T05:02:43;6.00;99.90
7030;DHT22;3556;53.500;10.176;2023-03-04T05:05:09;6.00;99.90
7030;DHT22;3556;53.500;10.176;2023-03-04T05:07:34;6.00;99.90
7030;DHT22;3556;53.500;10.176;2023-03-04T05:10:00;6.00;99.90
7030;DHT22;3556;53.500;10.176;2023-03-04T05:12:26;6.00;99.90
7030;DHT22;3556;53.500;10.176;2023-03-04T05:14:51;6.00;99.90
7030;DHT22;3556;53.500;10.176;2023-03-04T05:17:17;6.00;99.90
7030;DHT22;3556;53.500;10.176;2023-03-04T05:19:43;6.00;99.90
7030;DHT22;3556;53.500;10.176;2023-03-04T05:22:08;6.00;99.90
7030;DHT22;3556;53.500;10.176;2023-03-04T05:24:34;6.00;99.90
7030;DHT22;3556;53.500;10.176;2023-03-04T05:27:00;6.10;99.90
7030;DHT22;3556;53.500;10.176;2023-03-04T05:29:26;6.00;99.90
7030;DHT22;3556;53.500;10.176;2023-03-04T05:31:52;6.00;99.90
7030;DHT22;3556;53.500;10.176;2023-03-04T05:34:17;6.00;99.90
7030;DHT22;3556;53.500;10.176;2023-03-04T05:36:43;6.00;99.90
7030;DHT22;3556;53.500;10.176;2023-03-04T05:39:10;6.00;99.90
7030;DHT22;3556;53.500;10.176;2023-03-04T05:41:36;6.00;99.90
7030;DHT22;3556;53.500;10.176;2023-03-04T05:44:01;5.90;99.90
7030;DHT22;3556;53.500;10.176;2023-03-04T05:46:27;5.90;99.90
7030;DHT22;3556;53.500;10.176;2023-03-04T05:48:53;5.90;99.90
7030;DHT22;3556;53.500;10.176;2023-03-04T05:51:20;5.90;99.90
7030;DHT22;3556;53.500;10.176;2023-03-04T05:53:45;5.80;99.90
7030;DHT22;3556;53.500;10.176;2023-03-04T05:56:15;5.80;99.90
7030;DHT22;3556;53.500;10.176;2023-03-04T05:58:41;5.70;99.90
7030;DHT22;3556;53.500;10.176;2023-03-04T06:01:07;5.70;99.90
7030;DHT22;3556;53.500;10.176;2023-03-04T06:03:33;5.70;99.90
7030;DHT22;3556;53.500;10.176;2023-03-04T06:05:59;5.70;99.90
7030;DHT22;3556;53.500;10.176;2023-03-04T06:08:25;5.60;99.90
7030;DHT22;3556;53.500;10.176;2023-03-04T06:10:52;5.60;99.90
7030;DHT22;3556;53.500;10.176;2023-03-04T06:13:18;5.60;99.90
7030;DHT22;3556;53.500;10.176;2023-03-04T06:15:44;5.60;99.90
7030;DHT22;3556;53.500;10.176;2023-03-04T06:18:10;5.70;99.90
7030;DHT22;3556;53.500;10.176;2023-03-04T06:20:36;5.70;99.90
7030;DHT22;3556;53.500;10.176;2023-03-04T06:23:02;5.70;99.90
7030;DHT22;3556;53.500;10.176;2023-03-04T06:25:28;5.70;99.90
7030;DHT22;3556;53.500;10.176;2023-03-04T06:27:54;5.70;99.90
7030;DHT22;3556;53.500;10.176;2023-03-04T06:30:20;5.70;99.90
7030;DHT22;3556;53.500;10.176;2023-03-04T06:32:46;5.70;99.90
7030;DHT22;3556;53.500;10.176;2023-03-04T06:35:13;5.70;99.90
7030;DHT22;3556;53.500;10.176;2023-03-04T06:37:39;5.70;99.90
7030;DHT22;3556;53.500;10.176;2023-03-04T06:40:05;5.70;99.90
7030;DHT22;3556;53.500;10.176;2023-03-04T06:42:32;5.70;99.90
7030;DHT22;3556;53.500;10.176;2023-03-04T06:44:58;5.70;99.90
7030;DHT22;3556;53.500;10.176;2023-03-04T06:47:24;5.60;99.90
7030;DHT22;3556;53.500;10.176;2023-03-04T06:49:49;5.60;99.90
7030;DHT22;3556;53.500;10.176;2023-03-04T06:52:15;5.60;99.90
7030;DHT22;3556;53.500;10.176;2023-03-04T06:54:40;5.60;99.90
7030;DHT22;3556;53.500;10.176;2023-03-04T06:57:06;5.50;99.90
7030;DHT22;3556;53.500;10.176;2023-03-04T06:59:32;5.50;99.90
7030;DHT22;3556;53.500;10.176;2023-03-04T07:01:58;5.50;99.90
7030;DHT22;3556;53.500;10.176;2023-03-04T07:04:23;5.50;99.90
7030;DHT22;3556;53.500;10.176;2023-03-04T07:06:50;5.50;99.90
7030;DHT22;3556;53.500;10.176;2023-03-04T07:09:16;5.50;99.90
7030;DHT22;3556;53.500;10.176;2023-03-04T07:11:42;5.50;99.90
7030;DHT22;3556;53.500;10.176;2023-03-04T07:14:07;5.50;99.90
7030;DHT22;3556;53.500;10.176;2023-03-04T07:16:33;5.50;99.90
7030;DHT22;3556;53.500;10.176;2023-03-04T07:18:59;5.50;99.90
7030;DHT22;3556;53.500;10.176;2023-03-04T07:21:26;5.50;99.90
7030;DHT22;3556;53.500;10.176;2023-03-04T07:23:52;5.50;99.90
7030;DHT22;3556;53.500;10.176;2023-03-04T07:26:18;5.50;99.90
7030;DHT22;3556;53.500;10.176;2023-03-04T07:28:43;5.50;99.90
7030;DHT22;3556;53.500;10.176;2023-03-04T07:31:26;5.50;99.90
7030;DHT22;3556;53.500;10.176;2023-03-04T07:33:56;5.50;99.90
7030;DHT22;3556;53.500;10.176;2023-03-04T07:36:22;5.50;99.90
7030;DHT22;3556;53.500;10.176;2023-03-04T07:38:49;5.50;99.90
7030;DHT22;3556;53.500;10.176;2023-03-04T07:41:16;5.50;99.90
7030;DHT22;3556;53.500;10.176;2023-03-04T07:43:42;5.50;99.90
7030;DHT22;3556;53.500;10.176;2023-03-04T07:46:09;5.50;99.90
7030;DHT22;3556;53.500;10.176;2023-03-04T07:48:35;5.50;99.90
7030;DHT22;3556;53.500;10.176;2023-03-04T07:51:06;5.50;99.90
7030;DHT22;3556;53.500;10.176;2023-03-04T07:53:34;5.50;99.90
7030;DHT22;3556;53.500;10.176;2023-03-04T07:55:59;5.50;99.90
7030;DHT22;3556;53.500;10.176;2023-03-04T07:58:25;5.60;99.90
7030;DHT22;3556;53.500;10.176;2023-03-04T08:00:51;5.50;99.90
7030;DHT22;3556;53.500;10.176;2023-03-04T08:03:16;5.50;99.90
7030;DHT22;3556;53.500;10.176;2023-03-04T08:05:42;5.50;99.90
7030;DHT22;3556;53.500;10.176;2023-03-04T08:08:08;5.50;99.90
7030;DHT22;3556;53.500;10.176;2023-03-04T08:10:34;5.50;99.90
7030;DHT22;3556;53.500;10.176;2023-03-04T08:13:00;5.50;99.90
7030;DHT22;3556;53.500;10.176;2023-03-04T08:15:25;5.50;99.90
7030;DHT22;3556;53.500;10.176;2023-03-04T08:17:52;5.40;99.90
7030;DHT22;3556;53.500;10.176;2023-03-04T08:20:18;5.40;99.90
7030;DHT22;3556;53.500;10.176;2023-03-04T08:22:43;5.40;99.90
7030;DHT22;3556;53.500;10.176;2023-03-04T08:25:09;5.40;99.90
7030;DHT22;3556;53.500;10.176;2023-03-04T08:27:35;5.50;99.90
7030;DHT22;3556;53.500;10.176;2023-03-04T08:30:03;5.50;99.90
7030;DHT22;3556;53.500;10.176;2023-03-04T08:32:29;5.50;99.90
7030;DHT22;3556;53.500;10.176;2023-03-04T08:34:54;5.50;99.90
7030;DHT22;3556;53.500;10.176;2023-03-04T08:37:21;5.50;99.90
7030;DHT22;3556;53.500;10.176;2023-03-04T08:39:47;5.50;99.90
7030;DHT22;3556;53.500;10.176;2023-03-04T08:42:12;5.50;99.90
7030;DHT22;3556;53.500;10.176;2023-03-04T08:44:38;5.50;99.90
7030;DHT22;3556;53.500;10.176;2023-03-04T08:47:04;5.60;99.90
7030;DHT22;3556;53.500;10.176;2023-03-04T08:49:30;5.60;99.90
7030;DHT22;3556;53.500;10.176;2023-03-04T08:51:55;5.60;99.90
7030;DHT22;3556;53.500;10.176;2023-03-04T08:54:21;5.60;99.90
7030;DHT22;3556;53.500;10.176;2023-03-04T08:56:46;5.60;99.90
7030;DHT22;3556;53.500;10.176;2023-03-04T08:59:12;5.50;99.90
7030;DHT22;3556;53.500;10.176;2023-03-04T09:01:37;5.60;99.90
7030;DHT22;3556;53.500;10.176;2023-03-04T09:04:03;5.60;99.90
7030;DHT22;3556;53.500;10.176;2023-03-04T09:06:29;5.60;99.90
7030;DHT22;3556;53.500;10.176;2023-03-04T09:08:55;5.60;99.90
7030;DHT22;3556;53.500;10.176;2023-03-04T09:11:20;5.60;99.90
7030;DHT22;3556;53.500;10.176;2023-03-04T09:13:46;5.60;99.90
7030;DHT22;3556;53.500;10.176;2023-03-04T09:16:13;5.70;99.90
7030;DHT22;3556;53.500;10.176;2023-03-04T09:18:40;5.60;99.90
7030;DHT22;3556;53.500;10.176;2023-03-04T09:21:06;5.70;99.90
7030;DHT22;3556;53.500;10.176;2023-03-04T09:23:33;5.60;99.90
7030;DHT22;3556;53.500;10.176;2023-03-04T09:25:59;5.50;99.90
7030;DHT22;3556;53.500;10.176;2023-03-04T09:28:25;5.60;99.90
7030;DHT22;3556;53.500;10.176;2023-03-04T09:30:50;5.60;99.90
7030;DHT22;3556;53.500;10.176;2023-03-04T09:33:16;5.50;99.90
7030;DHT22;3556;53.500;10.176;2023-03-04T09:35:43;5.50;99.90
7030;DHT22;3556;53.500;10.176;2023-03-04T09:38:09;5.60;99.90
7030;DHT22;3556;53.500;10.176;2023-03-04T09:40:45;5.50;99.90
7030;DHT22;3556;53.500;10.176;2023-03-04T09:43:18;5.50;99.90
7030;DHT22;3556;53.500;10.176;2023-03-04T09:45:48;5.60;99.90
7030;DHT22;3556;53.500;10.176;2023-03-04T09:48:19;5.60;99.90
7030;DHT22;3556;53.500;10.176;2023-03-04T09:51:29;5.70;99.90
7030;DHT22;3556;53.500;10.176;2023-03-04T09:56:50;5.70;99.90
7030;DHT22;3556;53.500;10.176;2023-03-04T09:59:40;5.70;99.90
7030;DHT22;3556;53.500;10.176;2023-03-04T10:05:04;5.80;99.90
7030;DHT22;3556;53.500;10.176;2023-03-04T10:07:36;5.80;99.90
7030;DHT22;3556;53.500;10.176;2023-03-04T10:10:13;5.90;99.90
7030;DHT22;3556;53.500;10.176;2023-03-04T10:12:43;6.00;99.90
7030;DHT22;3556;53.500;10.176;2023-03-04T10:15:31;5.90;99.90
7030;DHT22;3556;53.500;10.176;2023-03-04T10:18:17;6.00;99.90
7030;DHT22;3556;53.500;10.176;2023-03-04T10:21:03;5.90;99.90
7030;DHT22;3556;53.500;10.176;2023-03-04T10:23:33;5.90;99.90
7030;DHT22;3556;53.500;10.176;2023-03-04T10:26:09;5.80;99.90
7030;DHT22;3556;53.500;10.176;2023-03-04T10:28:36;5.90;99.90
7030;DHT22;3556;53.500;10.176;2023-03-04T10:31:21;5.80;99.90
7030;DHT22;3556;53.500;10.176;2023-03-04T10:33:52;5.80;99.90
7030;DHT22;3556;53.500;10.176;2023-03-04T10:39:26;6.00;99.90
7030;DHT22;3556;53.500;10.176;2023-03-04T10:42:42;6.10;99.90
7030;DHT22;3556;53.500;10.176;2023-03-04T10:44:52;6.10;99.90
7030;DHT22;3556;53.500;10.176;2023-03-04T10:47:18;6.20;99.90
7030;DHT22;3556;53.500;10.176;2023-03-04T10:49:55;6.30;99.90
7030;DHT22;3556;53.500;10.176;2023-03-04T10:52:46;6.30;99.90
7030;DHT22;3556;53.500;10.176;2023-03-04T10:55:23;6.30;99.90
7030;DHT22;3556;53.500;10.176;2023-03-04T10:57:53;6.30;99.90
7030;DHT22;3556;53.500;10.176;2023-03-04T11:00:30;6.30;99.90
7030;DHT22;3556;53.500;10.176;2023-03-04T11:06:20;6.30;99.90
7030;DHT22;3556;53.500;10.176;2023-03-04T11:08:55;6.30;99.90
7030;DHT22;3556;53.500;10.176;2023-03-04T11:16:25;6.20;99.90
7030;DHT22;3556;53.500;10.176;2023-03-04T11:18:58;6.20;99.90
7030;DHT22;3556;53.500;10.176;2023-03-04T11:21:28;6.30;99.90
7030;DHT22;3556;53.500;10.176;2023-03-04T11:26:50;6.40;99.90
7030;DHT22;3556;53.500;10.176;2023-03-04T11:29:25;6.50;99.90
7030;DHT22;3556;53.500;10.176;2023-03-04T11:34:57;6.60;99.90
7030;DHT22;3556;53.500;10.176;2023-03-04T11:37:44;6.60;99.90
7030;DHT22;3556;53.500;10.176;2023-03-04T11:43:16;6.70;99.90
7030;DHT22;3556;53.500;10.176;2023-03-04T11:50:53;7.10;99.90
7030;DHT22;3556;53.500;10.176;2023-03-04T12:01:27;7.30;99.90
7030;DHT22;3556;53.500;10.176;2023-03-04T12:04:23;7.20;99.90
7030;DHT22;3556;53.500;10.176;2023-03-04T12:17:42;7.40;99.90
7030;DHT22;3556;53.500;10.176;2023-03-04T12:26:19;7.30;99.90
7030;DHT22;3556;53.500;10.176;2023-03-04T12:28:53;7.30;99.90
7030;DHT22;3556;53.500;10.176;2023-03-04T12:37:18;7.30;99.90
7030;DHT22;3556;53.500;10.176;2023-03-04T12:42:50;7.30;99.90
7030;DHT22;3556;53.500;10.176;2023-03-04T12:59:18;7.10;99.90
7030;DHT22;3556;53.500;10.176;2023-03-04T13:07:14;7.20;99.90
7030;DHT22;3556;53.500;10.176;2023-03-04T13:10:03;7.20;99.90
7030;DHT22;3556;53.500;10.176;2023-03-04T13:12:51;7.10;99.90
7030;DHT22;3556;53.500;10.176;2023-03-04T13:20:34;7.20;99.90
7030;DHT22;3556;53.500;10.176;2023-03-04T13:28:22;8.90;99.90
7030;DHT22;3556;53.500;10.176;2023-03-04T13:35:49;7.90;99.90
7030;DHT22;3556;53.500;10.176;2023-03-04T13:51:38;6.80;99.90
7030;DHT22;3556;53.500;10.176;2023-03-04T13:56:45;6.90;99.90
7030;DHT22;3556;53.500;10.176;2023-03-04T13:59:44;6.90;99.90
7030;DHT22;3556;53.500;10.176;2023-03-04T14:02:18;6.90;99.90
7030;DHT22;3556;53.500;10.176;2023-03-04T14:04:57;6.80;99.90
7030;DHT22;3556;53.500;10.176;2023-03-04T14:07:30;6.70;99.90
7030;DHT22;3556;53.500;10.176;2023-03-04T14:12:30;6.70;99.90
7030;DHT22;3556;53.500;10.176;2023-03-04T14:14:59;6.60;99.90
7030;DHT22;3556;53.500;10.176;2023-03-04T14:17:31;6.70;99.90
7030;DHT22;3556;53.500;10.176;2023-03-04T14:19:59;6.70;99.90
7030;DHT22;3556;53.500;10.176;2023-03-04T14:27:33;6.60;99.90
7030;DHT22;3556;53.500;10.176;2023-03-04T14:30:06;6.60;99.90
7030;DHT22;3556;53.500;10.176;2023-03-04T14:32:32;6.60;99.90
7030;DHT22;3556;53.500;10.176;2023-03-04T14:35:18;6.60;99.90
7030;DHT22;3556;53.500;10.176;2023-03-04T14:37:48;6.50;99.90
7030;DHT22;3556;53.500;10.176;2023-03-04T14:40:26;6.40;99.90
7030;DHT22;3556;53.500;10.176;2023-03-04T14:42:57;6.40;99.90
7030;DHT22;3556;53.500;10.176;2023-03-04T14:45:24;6.40;99.90
7030;DHT22;3556;53.500;10.176;2023-03-04T14:47:53;6.40;99.90
7030;DHT22;3556;53.500;10.176;2023-03-04T14:50:22;6.40;99.90
7030;DHT22;3556;53.500;10.176;2023-03-04T14:52:50;6.40;99.90
7030;DHT22;3556;53.500;10.176;2023-03-04T14:55:27;6.40;99.90
7030;DHT22;3556;53.500;10.176;2023-03-04T14:58:09;6.30;99.90
7030;DHT22;3556;53.500;10.176;2023-03-04T15:00:42;6.30;99.90
7030;DHT22;3556;53.500;10.176;2023-03-04T15:03:25;6.30;99.90
7030;DHT22;3556;53.500;10.176;2023-03-04T15:05:53;6.30;99.90
7030;DHT22;3556;53.500;10.176;2023-03-04T15:10:57;6.10;99.90
7030;DHT22;3556;53.500;10.176;2023-03-04T15:16:06;6.00;99.90
7030;DHT22;3556;53.500;10.176;2023-03-04T15:18:32;6.00;99.90
7030;DHT22;3556;53.500;10.176;2023-03-04T15:21:27;6.00;99.90
7030;DHT22;3556;53.500;10.176;2023-03-04T15:23:50;6.00;99.90
7030;DHT22;3556;53.500;10.176;2023-03-04T15:26:16;5.90;99.90
7030;DHT22;3556;53.500;10.176;2023-03-04T15:28:42;5.80;99.90
7030;DHT22;3556;53.500;10.176;2023-03-04T15:31:22;5.80;99.90
7030;DHT22;3556;53.500;10.176;2023-03-04T15:33:48;5.80;99.90
7030;DHT22;3556;53.500;10.176;2023-03-04T15:36:17;5.70;99.90
7030;DHT22;3556;53.500;10.176;2023-03-04T15:38:44;5.70;99.90
7030;DHT22;3556;53.500;10.176;2023-03-04T15:41:16;5.70;99.90
7030;DHT22;3556;53.500;10.176;2023-03-04T15:43:43;5.70;99.90
7030;DHT22;3556;53.500;10.176;2023-03-04T15:46:10;5.60;99.90
7030;DHT22;3556;53.500;10.176;2023-03-04T15:48:36;5.60;99.90
7030;DHT22;3556;53.500;10.176;2023-03-04T15:51:02;5.70;99.90
7030;DHT22;3556;53.500;10.176;2023-03-04T15:53:38;5.60;99.90
7030;DHT22;3556;53.500;10.176;2023-03-04T15:56:09;5.60;99.90
7030;DHT22;3556;53.500;10.176;2023-03-04T15:58:35;5.60;99.90
7030;DHT22;3556;53.500;10.176;2023-03-04T16:01:02;5.50;99.90
7030;DHT22;3556;53.500;10.176;2023-03-04T16:03:28;5.50;99.90
7030;DHT22;3556;53.500;10.176;2023-03-04T16:05:53;5.50;99.90
7030;DHT22;3556;53.500;10.176;2023-03-04T16:08:20;5.40;99.90
7030;DHT22;3556;53.500;10.176;2023-03-04T16:10:46;5.30;99.90
7030;DHT22;3556;53.500;10.176;2023-03-04T16:13:18;5.30;99.90
7030;DHT22;3556;53.500;10.176;2023-03-04T16:15:44;5.30;99.90
7030;DHT22;3556;53.500;10.176;2023-03-04T16:18:12;5.30;99.90
7030;DHT22;3556;53.500;10.176;2023-03-04T16:20:38;5.30;99.90
7030;DHT22;3556;53.500;10.176;2023-03-04T16:23:08;5.30;99.90
7030;DHT22;3556;53.500;10.176;2023-03-04T16:25:34;5.20;99.90
7030;DHT22;3556;53.500;10.176;2023-03-04T16:28:00;5.20;99.90
7030;DHT22;3556;53.500;10.176;2023-03-04T16:30:28;5.10;99.90
7030;DHT22;3556;53.500;10.176;2023-03-04T16:32:54;5.10;99.90
7030;DHT22;3556;53.500;10.176;2023-03-04T16:35:20;5.10;99.90
7030;DHT22;3556;53.500;10.176;2023-03-04T16:37:50;5.10;99.90
7030;DHT22;3556;53.500;10.176;2023-03-04T16:40:25;5.10;99.90
7030;DHT22;3556;53.500;10.176;2023-03-04T16:42:51;5.00;99.90
7030;DHT22;3556;53.500;10.176;2023-03-04T16:45:27;5.00;99.90
7030;DHT22;3556;53.500;10.176;2023-03-04T16:47:55;5.00;99.90
7030;DHT22;3556;53.500;10.176;2023-03-04T16:50:23;5.00;99.90
7030;DHT22;3556;53.500;10.176;2023-03-04T16:52:53;5.00;99.90
7030;DHT22;3556;53.500;10.176;2023-03-04T16:55:20;5.00;99.90
7030;DHT22;3556;53.500;10.176;2023-03-04T16:57:46;4.90;99.90
7030;DHT22;3556;53.500;10.176;2023-03-04T17:00:13;4.90;99.90
7030;DHT22;3556;53.500;10.176;2023-03-04T17:02:39;4.90;99.90
7030;DHT22;3556;53.500;10.176;2023-03-04T17:05:06;4.90;99.90
7030;DHT22;3556;53.500;10.176;2023-03-04T17:07:31;4.80;99.90
7030;DHT22;3556;53.500;10.176;2023-03-04T17:09:57;4.80;99.90
7030;DHT22;3556;53.500;10.176;2023-03-04T17:12:23;4.80;99.90
7030;DHT22;3556;53.500;10.176;2023-03-04T17:14:48;4.80;99.90
7030;DHT22;3556;53.500;10.176;2023-03-04T17:17:14;4.80;99.90
7030;DHT22;3556;53.500;10.176;2023-03-04T17:19:39;4.70;99.90
7030;DHT22;3556;53.500;10.176;2023-03-04T17:22:07;4.70;99.90
7030;DHT22;3556;53.500;10.176;2023-03-04T17:24:33;4.70;99.90
7030;DHT22;3556;53.500;10.176;2023-03-04T17:26:59;4.70;99.90
7030;DHT22;3556;53.500;10.176;2023-03-04T17:29:25;4.70;99.90
7030;DHT22;3556;53.500;10.176;2023-03-04T17:31:50;4.60;99.90
7030;DHT22;3556;53.500;10.176;2023-03-04T17:34:17;4.60;99.90
7030;DHT22;3556;53.500;10.176;2023-03-04T17:36:43;4.60;99.90
7030;DHT22;3556;53.500;10.176;2023-03-04T17:39:09;4.60;99.90
7030;DHT22;3556;53.500;10.176;2023-03-04T17:41:35;4.50;99.90
7030;DHT22;3556;53.500;10.176;2023-03-04T17:44:00;4.50;99.90
7030;DHT22;3556;53.500;10.176;2023-03-04T17:46:27;4.50;99.90
7030;DHT22;3556;53.500;10.176;2023-03-04T17:48:54;4.40;99.90
7030;DHT22;3556;53.500;10.176;2023-03-04T17:51:34;4.40;99.90
7030;DHT22;3556;53.500;10.176;2023-03-04T17:54:01;4.40;99.90
7030;DHT22;3556;53.500;10.176;2023-03-04T17:56:27;4.40;99.90
7030;DHT22;3556;53.500;10.176;2023-03-04T17:58:57;4.30;99.90
7030;DHT22;3556;53.500;10.176;2023-03-04T18:01:24;4.30;99.90
7030;DHT22;3556;53.500;10.176;2023-03-04T18:03:50;4.30;99.90
7030;DHT22;3556;53.500;10.176;2023-03-04T18:06:16;4.30;99.90
7030;DHT22;3556;53.500;10.176;2023-03-04T18:08:43;4.30;99.90
7030;DHT22;3556;53.500;10.176;2023-03-04T18:11:09;4.30;99.90
7030;DHT22;3556;53.500;10.176;2023-03-04T18:13:39;4.20;99.90
7030;DHT22;3556;53.500;10.176;2023-03-04T18:16:04;4.20;99.90
7030;DHT22;3556;53.500;10.176;2023-03-04T18:18:30;4.20;99.90
7030;DHT22;3556;53.500;10.176;2023-03-04T18:20:59;4.10;99.90
7030;DHT22;3556;53.500;10.176;2023-03-04T18:23:26;4.10;99.90